createdAt,value
2018-03-26T00:00:26.874Z,25.50
2018-03-26T00:02:54.348Z,25.15
2018-03-26T00:05:21.802Z,24.70
2018-03-26T00:07:49.276Z,24.02
2018-03-26T00:10:17.531Z,26.02
2018-03-26T00:12:45.004Z,26.37
2018-03-26T00:15:13.331Z,25.30
2018-03-26T00:17:40.808Z,24.67
2018-03-26T00:20:08.267Z,25.05
2018-03-26T00:22:35.720Z,26.02
2018-03-26T00:25:03.200Z,24.77
2018-03-26T00:27:31.443Z,24.92
2018-03-26T00:29:59.702Z,26.12
2018-03-26T00:32:27.155Z,26.85
2018-03-26T00:34:54.617Z,25.70
2018-03-26T00:37:22.081Z,25.12
2018-03-26T00:39:49.559Z,25.25
2018-03-26T00:42:17.509Z,25.62
2018-03-26T00:44:44.963Z,23.92
2018-03-26T00:47:12.424Z,28.50
2018-03-26T00:49:39.894Z,25.67
2018-03-26T00:52:07.453Z,27.45
2018-03-26T00:54:34.920Z,25.35
2018-03-26T00:57:02.366Z,26.77
2018-03-26T00:59:29.808Z,27.70
2018-03-26T01:01:57.284Z,25.83
2018-03-26T01:04:24.722Z,24.87
2018-03-26T01:06:52.187Z,26.42
2018-03-26T01:09:19.636Z,25.52
2018-03-26T01:11:47.091Z,26.45
2018-03-26T01:14:14.548Z,25.67
2018-03-26T01:16:42.024Z,26.77
2018-03-26T01:19:09.478Z,26.45
2018-03-26T01:21:37.697Z,26.52
2018-03-26T01:24:05.180Z,25.77
2018-03-26T01:26:33.402Z,25.10
2018-03-26T01:29:01.649Z,26.50
2018-03-26T01:31:29.115Z,26.73
2018-03-26T01:33:57.347Z,26.80
2018-03-26T01:36:25.418Z,25.83
2018-03-26T01:38:52.886Z,25.90
2018-03-26T01:41:20.340Z,26.55
2018-03-26T01:43:47.807Z,26.33
2018-03-26T01:46:15.274Z,25.45
2018-03-26T01:48:42.732Z,25.58
2018-03-26T01:51:10.197Z,25.45
2018-03-26T01:53:37.716Z,26.58
2018-03-26T01:56:05.203Z,25.77
2018-03-26T01:58:32.671Z,27.35
2018-03-26T02:01:00.890Z,25.48
2018-03-26T02:03:28.369Z,24.08
2018-03-26T02:05:55.824Z,24.83
2018-03-26T02:08:23.300Z,24.50
2018-03-26T02:10:50.752Z,25.05
2018-03-26T02:13:18.183Z,27.45
2018-03-26T02:15:45.643Z,26.10
2018-03-26T02:18:13.094Z,25.45
2018-03-26T02:20:40.548Z,26.15
2018-03-26T02:23:08.006Z,24.60
2018-03-26T02:25:35.491Z,27.35
2018-03-26T02:28:02.947Z,25.73
2018-03-26T02:30:30.402Z,25.20
2018-03-26T02:32:57.848Z,24.90
2018-03-26T02:35:25.308Z,26.23
2018-03-26T02:37:52.789Z,26.70
2018-03-26T02:40:20.327Z,26.55
2018-03-26T02:42:47.829Z,28.15
2018-03-26T02:45:15.271Z,25.55
2018-03-26T02:47:43.497Z,26.02
2018-03-26T02:50:11.066Z,25.48
2018-03-26T02:52:38.504Z,24.85
2018-03-26T02:55:05.952Z,26.40
2018-03-26T02:57:33.436Z,26.75
2018-03-26T03:00:00.890Z,25.95
2018-03-26T03:02:28.367Z,26.20
2018-03-26T03:04:56.587Z,26.12
2018-03-26T03:07:24.081Z,27.75
2018-03-26T03:09:51.512Z,26.65
2018-03-26T03:12:18.981Z,26.85
2018-03-26T03:14:46.431Z,27.33
2018-03-26T03:17:13.896Z,27.48
2018-03-26T03:19:41.339Z,27.00
2018-03-26T03:22:09.611Z,26.90
2018-03-26T03:24:37.065Z,25.80
2018-03-26T03:27:04.758Z,26.75
2018-03-26T03:29:32.206Z,25.20
2018-03-26T03:31:59.657Z,28.38
2018-03-26T03:34:27.127Z,27.20
2018-03-26T03:36:54.577Z,27.40
2018-03-26T03:39:22.038Z,27.95
2018-03-26T03:41:49.658Z,29.00
2018-03-26T03:44:17.112Z,27.33
2018-03-26T03:46:44.585Z,27.40
2018-03-26T03:49:12.095Z,27.62
2018-03-26T03:51:41.130Z,26.48
2018-03-26T03:54:08.680Z,27.10
2018-03-26T03:56:36.123Z,28.33
2018-03-26T03:59:03.601Z,26.45
2018-03-26T04:01:31.069Z,28.20
2018-03-26T04:03:58.528Z,28.10
2018-03-26T04:06:25.981Z,27.77
2018-03-26T04:08:53.459Z,27.58
2018-03-26T04:11:20.918Z,27.50
2018-03-26T04:13:48.370Z,27.37
2018-03-26T04:16:15.842Z,30.08
2018-03-26T04:18:44.084Z,30.40
2018-03-26T04:21:11.543Z,27.52
2018-03-26T04:23:39.003Z,27.23
2018-03-26T04:26:06.481Z,28.17
2018-03-26T04:28:34.705Z,28.90
2018-03-26T04:31:02.158Z,28.40
2018-03-26T04:33:29.631Z,28.50
2018-03-26T04:35:57.096Z,26.77
2018-03-26T04:38:24.572Z,26.67
2018-03-26T04:40:52.050Z,28.75
2018-03-26T04:43:20.259Z,28.45
2018-03-26T04:45:47.719Z,31.40
2018-03-26T04:48:15.156Z,28.15
2018-03-26T04:50:42.655Z,28.38
2018-03-26T04:53:10.106Z,28.40
2018-03-26T04:55:37.563Z,30.23
2018-03-26T04:58:05.007Z,30.00
2018-03-26T05:00:32.555Z,28.33
2018-03-26T05:02:59.997Z,30.08
2018-03-26T05:05:27.505Z,30.73
2018-03-26T05:07:54.955Z,31.17
2018-03-26T05:10:22.431Z,29.90
2018-03-26T05:12:49.884Z,28.95
2018-03-26T05:15:17.335Z,29.63
2018-03-26T05:17:44.855Z,28.05
2018-03-26T05:20:13.360Z,29.67
2018-03-26T05:22:40.871Z,30.40
2018-03-26T05:25:09.062Z,31.80
2018-03-26T05:27:36.528Z,30.25
2018-03-26T05:30:04.022Z,29.50
2018-03-26T05:32:31.548Z,30.02
2018-03-26T05:34:59.014Z,30.12
2018-03-26T05:37:26.467Z,28.25
2018-03-26T05:39:53.928Z,29.02
2018-03-26T05:42:21.539Z,28.85
2018-03-26T05:44:48.979Z,29.23
2018-03-26T05:47:16.442Z,30.20
2018-03-26T05:49:43.906Z,26.90
2018-03-26T05:52:11.390Z,28.35
2018-03-26T05:54:38.839Z,29.95
2018-03-26T05:57:07.205Z,29.87
2018-03-26T05:59:34.666Z,29.65
2018-03-26T06:02:02.107Z,29.37
2018-03-26T06:04:29.579Z,26.27
2018-03-26T06:06:57.159Z,28.95
2018-03-26T06:09:24.669Z,29.17
2018-03-26T06:11:52.116Z,28.60
2018-03-26T06:14:20.355Z,27.35
2018-03-26T06:16:59.629Z,27.33
2018-03-26T06:19:27.160Z,28.55
2018-03-26T06:21:54.647Z,27.37
2018-03-26T06:24:22.357Z,28.70
2018-03-26T06:26:50.591Z,27.25
2018-03-26T06:29:18.082Z,27.02
2018-03-26T06:31:45.543Z,28.77
2018-03-26T06:34:13.004Z,29.05
2018-03-26T06:36:46.108Z,28.60
2018-03-26T06:39:19.281Z,27.90
2018-03-26T06:41:46.765Z,28.65
2018-03-26T06:44:15.027Z,28.45
2018-03-26T06:46:43.267Z,27.65
2018-03-26T06:49:10.707Z,29.83
2018-03-26T06:51:38.166Z,28.73
2018-03-26T06:54:05.632Z,29.08
2018-03-26T06:56:33.076Z,28.27
2018-03-26T06:59:00.544Z,27.95
2018-03-26T07:01:28.011Z,27.40
2018-03-26T07:03:55.580Z,29.15
2018-03-26T07:06:23.031Z,27.58
2018-03-26T07:08:50.493Z,28.95
2018-03-26T07:11:17.955Z,26.95
2018-03-26T07:13:45.387Z,28.40
2018-03-26T07:16:12.842Z,27.67
2018-03-26T07:18:40.320Z,25.52
2018-03-26T07:21:07.764Z,29.10
2018-03-26T07:23:35.237Z,26.73
2018-03-26T07:26:02.746Z,26.35
2018-03-26T07:28:30.223Z,28.70
2018-03-26T07:30:57.714Z,25.17
2018-03-26T07:33:25.180Z,26.75
2018-03-26T07:35:53.400Z,26.95
2018-03-26T07:38:21.472Z,25.45
2018-03-26T07:40:48.934Z,26.50
2018-03-26T07:43:16.411Z,24.98
2018-03-26T07:45:43.897Z,27.77
2018-03-26T07:48:12.150Z,27.73
2018-03-26T07:50:39.679Z,27.52
2018-03-26T07:53:07.147Z,26.08
2018-03-26T07:55:34.628Z,26.98
2018-03-26T07:58:02.387Z,26.42
2018-03-26T08:00:29.828Z,26.92
2018-03-26T08:02:57.294Z,27.62
2018-03-26T08:05:24.755Z,26.87
2018-03-26T08:07:52.198Z,28.02
2018-03-26T08:10:19.759Z,26.08
2018-03-26T08:12:47.212Z,25.65
2018-03-26T08:15:14.676Z,26.80
2018-03-26T08:17:42.141Z,25.20
2018-03-26T08:20:09.629Z,25.42
2018-03-26T08:22:37.088Z,26.27
2018-03-26T08:25:04.601Z,26.17
2018-03-26T08:27:32.030Z,26.17
2018-03-26T08:29:59.530Z,26.62
2018-03-26T08:32:27.125Z,25.58
2018-03-26T08:34:55.375Z,25.85
2018-03-26T08:37:23.651Z,28.50
2018-03-26T08:39:51.890Z,26.20
2018-03-26T08:42:19.438Z,25.27
2018-03-26T08:44:47.587Z,26.20
2018-03-26T08:47:15.068Z,26.65
2018-03-26T08:49:42.537Z,26.80
2018-03-26T08:52:10.043Z,26.10
2018-03-26T08:54:37.497Z,25.33
2018-03-26T08:57:04.953Z,24.95
2018-03-26T08:59:32.420Z,24.52
2018-03-26T09:01:59.926Z,24.95
2018-03-26T09:04:27.515Z,24.95
2018-03-26T09:06:55.799Z,25.85
2018-03-26T09:09:24.000Z,24.55
2018-03-26T09:11:51.467Z,24.37
2018-03-26T09:14:18.912Z,25.05
2018-03-26T09:16:46.382Z,25.50
2018-03-26T09:19:13.832Z,29.37
2018-03-26T09:21:41.362Z,25.50
2018-03-26T09:24:08.828Z,24.00
2018-03-26T09:26:36.316Z,23.27
2018-03-26T09:29:03.793Z,22.62
2018-03-26T09:31:32.807Z,24.58
2018-03-26T09:34:01.061Z,23.55
2018-03-26T09:36:28.510Z,24.98
2018-03-26T09:38:55.978Z,23.80
2018-03-26T09:41:24.200Z,22.55
2018-03-26T09:43:51.681Z,20.75
2018-03-26T09:46:19.123Z,20.73
2018-03-26T09:48:46.645Z,20.35
2018-03-26T09:51:14.109Z,19.62
2018-03-26T09:53:41.730Z,19.95
2018-03-26T09:56:09.193Z,17.85
2018-03-26T09:58:36.663Z,19.15
2018-03-26T10:01:04.163Z,19.30
2018-03-26T10:03:31.728Z,17.25
2018-03-26T10:05:59.181Z,18.98
2018-03-26T10:08:26.731Z,18.58
2018-03-26T10:10:56.998Z,19.30
2018-03-26T10:13:24.523Z,17.65
2018-03-26T10:15:52.051Z,18.52
2018-03-26T10:18:19.506Z,19.10
2018-03-26T10:20:46.964Z,18.85
2018-03-26T10:23:14.460Z,20.40
2018-03-26T10:25:41.937Z,19.90
2018-03-26T10:28:09.409Z,21.20
2018-03-26T10:30:37.640Z,18.83
2018-03-26T10:33:05.897Z,19.37
2018-03-26T10:35:33.345Z,19.75
2018-03-26T10:38:00.808Z,20.25
2018-03-26T10:40:28.325Z,21.42
2018-03-26T10:42:56.563Z,19.70
2018-03-26T10:45:24.022Z,20.42
2018-03-26T10:47:51.476Z,20.50
2018-03-26T10:50:19.003Z,19.73
2018-03-26T10:52:57.764Z,19.55
2018-03-26T10:55:25.234Z,21.17
2018-03-26T10:57:53.474Z,19.42
2018-03-26T11:00:20.942Z,18.50
2018-03-26T11:02:48.387Z,19.87
2018-03-26T11:05:15.880Z,19.95
2018-03-26T11:07:44.116Z,20.05
2018-03-26T11:10:11.562Z,18.55
2018-03-26T11:12:39.032Z,19.80
2018-03-26T11:15:06.480Z,20.20
2018-03-26T11:17:33.936Z,21.77
2018-03-26T11:20:01.562Z,19.62
2018-03-26T11:22:29.028Z,20.08
2018-03-26T11:24:56.488Z,22.13
2018-03-26T11:27:23.956Z,22.42
2018-03-26T11:29:51.536Z,22.60
2018-03-26T11:32:19.039Z,22.30
2018-03-26T11:34:46.508Z,21.40
2018-03-26T11:37:13.983Z,22.77
2018-03-26T11:39:41.439Z,22.42
2018-03-26T11:42:08.972Z,23.75
2018-03-26T11:44:36.429Z,23.90
2018-03-26T11:47:03.899Z,22.10
2018-03-26T11:49:31.419Z,23.00
2018-03-26T11:51:58.827Z,24.00
2018-03-26T11:54:26.302Z,23.65
2018-03-26T11:56:53.748Z,22.73
2018-03-26T11:59:21.211Z,23.42
2018-03-26T12:01:48.673Z,23.48
2018-03-26T12:04:16.148Z,24.73
2018-03-26T12:06:44.390Z,23.75
2018-03-26T12:09:11.862Z,23.02
2018-03-26T12:11:39.308Z,24.85
2018-03-26T12:14:06.775Z,24.50
2018-03-26T12:16:34.233Z,25.65
2018-03-26T12:19:01.692Z,23.95
2018-03-26T12:21:29.171Z,25.00
2018-03-26T12:24:09.367Z,24.40
2018-03-26T12:26:36.813Z,24.03
2018-03-26T12:32:07.678Z,25.88
2018-03-26T12:34:46.924Z,26.00
2018-03-26T12:37:14.564Z,25.70
2018-03-26T12:39:42.056Z,24.73
2018-03-26T12:42:09.512Z,26.50
2018-03-26T12:44:48.847Z,25.33
2018-03-26T12:47:16.308Z,25.27
2018-03-26T12:49:43.761Z,24.13
2018-03-26T12:52:23.212Z,27.50
2018-03-26T12:54:50.664Z,27.53
2018-03-26T12:57:30.048Z,31.47
2018-03-26T12:59:57.511Z,28.17
2018-03-26T13:02:26.859Z,27.73
2018-03-26T13:07:28.976Z,28.93
2018-03-26T13:09:56.426Z,29.17
2018-03-26T13:12:23.908Z,29.90
2018-03-26T13:14:51.412Z,28.80
2018-03-26T13:17:18.881Z,29.60
2018-03-26T13:19:47.083Z,30.17
2018-03-26T13:22:14.551Z,27.33
2018-03-26T13:24:42.008Z,29.17
2018-03-26T13:27:09.538Z,30.40
2018-03-26T13:29:37.742Z,29.80
2018-03-26T13:32:05.192Z,28.93
2018-03-26T13:34:32.668Z,30.97
2018-03-26T13:37:00.131Z,29.20
2018-03-26T13:39:27.627Z,28.63
2018-03-26T13:41:55.900Z,29.47
2018-03-26T13:44:23.355Z,30.57
2018-03-26T13:46:51.573Z,29.47
2018-03-26T13:49:19.046Z,28.93
2018-03-26T13:51:46.506Z,28.43
2018-03-26T13:54:13.988Z,29.77
2018-03-26T13:56:41.505Z,29.47
2018-03-26T13:59:08.975Z,29.63
2018-03-26T14:01:36.437Z,29.90
2018-03-26T14:04:03.928Z,31.37
2018-03-26T14:06:32.173Z,32.07
2018-03-26T14:09:11.496Z,29.60
2018-03-26T14:11:50.811Z,30.20
2018-03-26T14:14:30.171Z,31.27
2018-03-26T14:17:09.588Z,31.10
2018-03-26T14:19:37.071Z,28.58
2018-03-26T14:22:04.527Z,28.47
2018-03-26T14:24:31.985Z,27.40
2018-03-26T14:26:59.453Z,27.90
2018-03-26T14:29:26.917Z,25.83
2018-03-26T14:31:55.139Z,28.50
2018-03-26T14:34:22.628Z,28.07
2018-03-26T14:36:50.088Z,26.80
2018-03-26T14:39:18.333Z,27.90
2018-03-26T14:41:45.791Z,27.40
2018-03-26T14:44:14.012Z,26.07
2018-03-26T14:46:41.545Z,26.55
2018-03-26T14:49:09.042Z,26.77
2018-03-26T14:51:36.520Z,25.67
2018-03-26T14:54:04.731Z,29.07
2018-03-26T14:56:32.250Z,24.47
2018-03-26T14:58:59.713Z,26.67
2018-03-26T15:01:27.184Z,26.60
2018-03-26T15:04:00.540Z,26.90
2018-03-26T15:06:28.017Z,28.97
2018-03-26T15:08:55.473Z,30.03
2018-03-26T15:11:22.977Z,26.73
2018-03-26T15:13:50.423Z,27.27
2018-03-26T15:16:17.887Z,28.23
2018-03-26T15:18:45.348Z,29.43
2018-03-26T15:21:13.568Z,30.43
2018-03-26T15:23:41.098Z,30.20
2018-03-26T15:26:08.637Z,29.30
2018-03-26T15:28:36.876Z,28.50
2018-03-26T15:31:04.318Z,28.80
2018-03-26T15:33:31.789Z,28.00
2018-03-26T15:35:59.264Z,29.63
2018-03-26T15:38:26.770Z,26.37
2018-03-26T15:40:54.224Z,28.50
2018-03-26T15:43:21.753Z,28.27
2018-03-26T15:45:49.196Z,27.80
2018-03-26T15:48:16.672Z,29.10
2018-03-26T15:50:44.902Z,27.57
2018-03-26T15:53:12.373Z,29.70
2018-03-26T15:55:39.832Z,28.47
2018-03-26T15:58:07.291Z,29.23
2018-03-26T16:00:34.760Z,27.63
2018-03-26T16:03:08.715Z,29.63
2018-03-26T16:05:36.209Z,28.27
2018-03-26T16:08:03.660Z,27.87
2018-03-26T16:10:31.234Z,28.17
2018-03-26T16:12:58.683Z,30.80
2018-03-26T16:15:26.143Z,29.13
2018-03-26T16:17:53.604Z,31.23
2018-03-26T16:20:21.869Z,30.43
2018-03-26T16:22:49.451Z,30.47
2018-03-26T16:25:17.709Z,32.43
2018-03-26T16:27:45.175Z,30.73
2018-03-26T16:30:13.394Z,30.40
2018-03-26T16:32:40.883Z,31.47
2018-03-26T16:35:08.338Z,29.63
2018-03-26T16:37:35.811Z,31.03
2018-03-26T16:40:03.293Z,30.70
2018-03-26T16:42:31.562Z,33.83
2018-03-26T16:44:59.797Z,30.50
2018-03-26T16:47:27.277Z,31.13
2018-03-26T16:49:55.504Z,31.10
2018-03-26T16:52:22.955Z,32.73
2018-03-26T16:54:50.421Z,30.10
2018-03-26T16:57:17.897Z,32.60
2018-03-26T16:59:45.388Z,31.37
2018-03-26T17:02:12.885Z,30.75
2018-03-26T17:04:40.373Z,33.28
2018-03-26T17:07:07.832Z,31.83
2018-03-26T17:09:36.073Z,32.60
2018-03-26T17:12:03.572Z,33.53
2018-03-26T17:14:31.055Z,33.88
2018-03-26T17:16:58.507Z,31.62
2018-03-26T17:19:26.039Z,34.85
2018-03-26T17:21:54.274Z,33.90
2018-03-26T17:24:21.756Z,32.80
2018-03-26T17:26:49.259Z,32.35
2018-03-26T17:29:16.765Z,33.22
2018-03-26T17:31:44.225Z,34.33
2018-03-26T17:34:11.729Z,33.85
2018-03-26T17:36:39.292Z,33.88
2018-03-26T17:39:06.798Z,32.80
2018-03-26T17:41:34.273Z,32.60
2018-03-26T17:44:01.737Z,31.70
2018-03-26T17:46:29.963Z,36.15
2018-03-26T17:48:57.437Z,34.20
2018-03-26T17:51:24.952Z,32.80
2018-03-26T17:53:52.413Z,33.72
2018-03-26T17:56:19.876Z,33.53
2018-03-26T17:58:47.379Z,34.95
2018-03-26T18:01:14.875Z,34.28
2018-03-26T18:03:42.339Z,32.10
2018-03-26T18:06:09.795Z,34.40
2018-03-26T18:08:37.252Z,33.97
2018-03-26T18:11:04.729Z,32.78
2018-03-26T18:13:32.180Z,33.25
2018-03-26T18:16:00.445Z,33.60
2018-03-26T18:18:27.900Z,33.28
2018-03-26T18:20:55.379Z,33.88
2018-03-26T18:23:22.899Z,34.85
2018-03-26T18:25:50.312Z,34.97
2018-03-26T18:28:17.902Z,34.88
2018-03-26T18:30:45.389Z,33.20
2018-03-26T18:33:12.840Z,33.55
2018-03-26T18:35:40.323Z,35.60
2018-03-26T18:38:07.896Z,36.55
2018-03-26T18:40:35.378Z,35.03
2018-03-26T18:43:02.832Z,33.97
2018-03-26T18:45:31.073Z,34.10
2018-03-26T18:47:58.534Z,33.35
2018-03-26T18:50:25.994Z,35.35
2018-03-26T18:52:53.517Z,39.45
2018-03-26T18:55:20.989Z,34.90
2018-03-26T18:57:48.434Z,33.00
2018-03-26T19:00:15.918Z,35.65
2018-03-26T19:02:43.386Z,34.22
2018-03-26T19:05:10.897Z,35.08
2018-03-26T19:07:38.340Z,36.40
2018-03-26T19:10:05.862Z,37.70
2018-03-26T19:12:33.792Z,36.33
2018-03-26T19:15:01.265Z,34.03
2018-03-26T19:17:28.740Z,35.65
2018-03-26T19:19:56.249Z,34.97
2018-03-26T19:22:23.732Z,35.05
2018-03-26T19:24:51.201Z,37.97
2018-03-26T19:27:18.677Z,34.88
2018-03-26T19:29:46.927Z,35.83
2018-03-26T19:32:14.416Z,35.70
2018-03-26T19:34:41.942Z,33.40
2018-03-26T19:37:09.472Z,37.10
2018-03-26T19:39:36.940Z,35.65
2018-03-26T19:42:04.469Z,36.35
2018-03-26T19:44:32.017Z,32.17
2018-03-26T19:46:59.503Z,31.30
2018-03-26T19:49:26.979Z,30.10
2018-03-26T19:51:54.487Z,28.25
2018-03-26T19:54:22.027Z,25.58
2018-03-26T19:56:50.341Z,25.98
2018-03-26T19:59:17.826Z,23.83
2018-03-26T20:01:45.291Z,23.08
2018-03-26T20:04:12.785Z,21.65
2018-03-26T20:06:40.252Z,21.45
2018-03-26T20:09:07.780Z,22.13
2018-03-26T20:11:36.041Z,22.52
2018-03-26T20:14:03.500Z,21.62
2018-03-26T20:16:30.992Z,19.80
2018-03-26T20:18:58.425Z,19.33
2018-03-26T20:21:26.654Z,19.98
2018-03-26T20:23:54.127Z,19.48
2018-03-26T20:26:21.596Z,18.90
2018-03-26T20:28:49.065Z,18.45
2018-03-26T20:31:17.274Z,18.05
2018-03-26T20:33:44.745Z,18.58
2018-03-26T20:36:12.254Z,16.95
2018-03-26T20:38:40.482Z,18.02
2018-03-26T20:41:08.132Z,17.50
2018-03-26T20:43:35.574Z,18.05
2018-03-26T20:46:03.042Z,17.92
2018-03-26T20:48:30.580Z,17.80
2018-03-26T20:50:58.096Z,17.40
2018-03-26T20:53:25.542Z,16.80
2018-03-26T20:55:53.009Z,19.02
2018-03-26T20:58:20.487Z,18.80
2018-03-26T21:00:48.746Z,17.73
2018-03-26T21:03:16.205Z,20.30
2018-03-26T21:05:43.733Z,18.60
2018-03-26T21:08:11.205Z,18.20
2018-03-26T21:10:38.704Z,16.92
2018-03-26T21:13:06.166Z,18.83
2018-03-26T21:15:33.803Z,18.27
2018-03-26T21:18:01.291Z,17.92
2018-03-26T21:20:30.585Z,18.10
2018-03-26T21:22:58.052Z,18.05
2018-03-26T21:25:25.562Z,18.52
2018-03-26T21:27:52.991Z,17.23
2018-03-26T21:30:20.464Z,16.98
2018-03-26T21:32:47.952Z,15.40
2018-03-26T21:35:16.149Z,18.12
2018-03-26T21:37:43.627Z,17.80
2018-03-26T21:40:11.072Z,16.05
2018-03-26T21:42:38.545Z,16.33
2018-03-26T21:45:06.246Z,16.08
2018-03-26T21:47:33.668Z,16.80
2018-03-26T21:50:01.872Z,15.23
2018-03-26T21:52:30.104Z,14.63
2018-03-26T21:54:57.578Z,15.00
2018-03-26T21:57:25.048Z,14.50
2018-03-26T21:59:52.487Z,14.93
2018-03-26T22:02:19.975Z,14.90
2018-03-26T22:04:48.188Z,14.15
2018-03-26T22:07:15.644Z,13.18
2018-03-26T22:09:43.140Z,15.27
2018-03-26T22:12:10.923Z,13.73
2018-03-26T22:14:39.345Z,16.05
2018-03-26T22:17:07.899Z,14.48
2018-03-26T22:19:36.155Z,14.10
2018-03-26T22:22:05.092Z,14.05
2018-03-26T22:24:32.571Z,15.80
2018-03-26T22:27:00.008Z,14.98
2018-03-26T22:29:27.493Z,16.67
2018-03-26T22:31:54.937Z,15.70
2018-03-26T22:34:22.469Z,15.00
2018-03-26T22:36:49.887Z,15.77
2018-03-26T22:39:18.119Z,15.32
2018-03-26T22:41:46.410Z,16.05
2018-03-26T22:44:13.857Z,16.12
2018-03-26T22:46:41.360Z,16.40
2018-03-26T22:49:12.990Z,15.80
2018-03-26T22:51:40.463Z,15.52
2018-03-26T22:54:08.683Z,14.10
2018-03-26T22:56:36.224Z,14.23
2018-03-26T22:59:03.668Z,15.10
2018-03-26T23:01:31.141Z,13.43
2018-03-26T23:03:58.590Z,12.05
2018-03-26T23:06:26.049Z,13.25
2018-03-26T23:08:53.528Z,13.18
2018-03-26T23:11:21.066Z,12.20
2018-03-26T23:13:48.492Z,11.18
2018-03-26T23:16:16.735Z,12.23
2018-03-26T23:18:44.180Z,11.32
2018-03-26T23:21:11.623Z,10.35
2018-03-26T23:23:39.097Z,10.52
2018-03-26T23:26:06.536Z,10.82
2018-03-26T23:28:34.014Z,8.77
2018-03-26T23:31:01.439Z,11.00
2018-03-26T23:33:28.901Z,12.07
2018-03-26T23:35:56.339Z,11.18
2018-03-26T23:38:23.809Z,10.85
2018-03-26T23:40:51.251Z,11.23
2018-03-26T23:43:19.566Z,13.00
2018-03-26T23:45:47.017Z,12.35
2018-03-26T23:48:15.167Z,10.68
2018-03-26T23:50:42.608Z,11.70
2018-03-26T23:53:10.058Z,11.90
2018-03-26T23:55:37.515Z,11.85
2018-03-26T23:58:04.983Z,12.77
